createdAt,value
2022-11-24T00:00:14.000Z,8.199999809265137
2022-11-24T00:00:29.000Z,8.199999809265137
2022-11-24T00:00:44.000Z,8.199999809265137
2022-11-24T00:00:59.000Z,8.199999809265137
2022-11-24T00:01:14.000Z,8.199999809265137
2022-11-24T00:01:28.000Z,8.199999809265137
2022-11-24T00:01:43.000Z,8.199999809265137
2022-11-24T00:01:58.000Z,8.199999809265137
2022-11-24T00:02:13.000Z,8.199999809265137
2022-11-24T00:02:28.000Z,8.199999809265137
2022-11-24T00:02:43.000Z,8.199999809265137
2022-11-24T00:02:58.000Z,8.300000190734863
2022-11-24T00:03:13.000Z,8.300000190734863
2022-11-24T00:03:28.000Z,8.199999809265137
2022-11-24T00:03:43.000Z,8.300000190734863
2022-11-24T00:03:58.000Z,8.199999809265137
2022-11-24T00:04:13.000Z,8.199999809265137
2022-11-24T00:04:28.000Z,8.199999809265137
2022-11-24T00:04:43.000Z,8.199999809265137
2022-11-24T00:04:58.000Z,8.199999809265137
2022-11-24T00:05:13.000Z,8.100000381469727
2022-11-24T00:05:29.000Z,8.199999809265137
2022-11-24T00:05:44.000Z,8.199999809265137
2022-11-24T00:05:59.000Z,8.199999809265137
2022-11-24T00:06:14.000Z,8.199999809265137
2022-11-24T00:06:29.000Z,8.199999809265137
2022-11-24T00:06:44.000Z,8.199999809265137
2022-11-24T00:06:59.000Z,8.199999809265137
2022-11-24T00:07:14.000Z,8.199999809265137
2022-11-24T00:07:29.000Z,8.199999809265137
2022-11-24T00:07:44.000Z,8.199999809265137
2022-11-24T00:07:59.000Z,8.199999809265137
2022-11-24T00:08:13.000Z,8.100000381469727
2022-11-24T00:08:28.000Z,8.100000381469727
2022-11-24T00:08:43.000Z,8.100000381469727
2022-11-24T00:08:58.000Z,8.100000381469727
2022-11-24T00:09:13.000Z,8.100000381469727
2022-11-24T00:09:28.000Z,8.100000381469727
2022-11-24T00:09:43.000Z,8.100000381469727
2022-11-24T00:09:58.000Z,8.100000381469727
2022-11-24T00:10:13.000Z,8.100000381469727
2022-11-24T00:10:28.000Z,8.100000381469727
2022-11-24T00:10:43.000Z,8.100000381469727
2022-11-24T00:10:58.000Z,8.100000381469727
2022-11-24T00:11:13.000Z,8.100000381469727
2022-11-24T00:11:28.000Z,8.100000381469727
2022-11-24T00:11:43.000Z,8.100000381469727
2022-11-24T00:11:58.000Z,8.100000381469727
2022-11-24T00:12:14.000Z,8.100000381469727
2022-11-24T00:12:29.000Z,8.100000381469727
2022-11-24T00:12:44.000Z,8.0
2022-11-24T00:12:59.000Z,8.0
2022-11-24T00:13:14.000Z,8.0
2022-11-24T00:13:29.000Z,7.900000095367432
2022-11-24T00:13:44.000Z,7.900000095367432
2022-11-24T00:13:59.000Z,7.900000095367432
2022-11-24T00:14:14.000Z,7.900000095367432
2022-11-24T00:14:29.000Z,7.900000095367432
2022-11-24T00:14:43.000Z,7.900000095367432
2022-11-24T00:14:58.000Z,7.900000095367432
2022-11-24T00:15:13.000Z,7.900000095367432
2022-11-24T00:15:28.000Z,7.900000095367432
2022-11-24T00:15:43.000Z,8.0
2022-11-24T00:15:58.000Z,8.0
2022-11-24T00:16:13.000Z,8.0
2022-11-24T00:16:28.000Z,8.0
2022-11-24T00:16:43.000Z,8.0
2022-11-24T00:16:58.000Z,8.0
2022-11-24T00:17:13.000Z,8.0
2022-11-24T00:17:28.000Z,7.900000095367432
2022-11-24T00:17:43.000Z,8.0
2022-11-24T00:17:58.000Z,7.900000095367432
2022-11-24T00:18:13.000Z,7.900000095367432
2022-11-24T00:18:28.000Z,7.900000095367432
2022-11-24T00:18:44.000Z,7.900000095367432
2022-11-24T00:18:59.000Z,7.900000095367432
2022-11-24T00:19:14.000Z,7.800000190734863
2022-11-24T00:19:29.000Z,7.900000095367432
2022-11-24T00:19:44.000Z,7.900000095367432
2022-11-24T00:19:59.000Z,7.900000095367432
2022-11-24T00:20:14.000Z,8.0
2022-11-24T00:20:29.000Z,8.0
2022-11-24T00:20:44.000Z,8.0
2022-11-24T00:20:59.000Z,8.0
2022-11-24T00:21:14.000Z,8.0
2022-11-24T00:21:28.000Z,8.0
2022-11-24T00:21:43.000Z,8.0
2022-11-24T00:21:58.000Z,8.100000381469727
2022-11-24T00:22:13.000Z,8.100000381469727
2022-11-24T00:22:28.000Z,8.100000381469727
2022-11-24T00:22:43.000Z,8.100000381469727
2022-11-24T00:22:58.000Z,8.100000381469727
2022-11-24T00:23:13.000Z,8.0
2022-11-24T00:23:28.000Z,8.0
2022-11-24T00:23:43.000Z,8.100000381469727
2022-11-24T00:23:58.000Z,8.100000381469727
2022-11-24T00:24:13.000Z,8.100000381469727
2022-11-24T00:24:28.000Z,8.100000381469727
2022-11-24T00:24:43.000Z,8.100000381469727
2022-11-24T00:24:58.000Z,8.100000381469727
2022-11-24T00:25:13.000Z,8.100000381469727
2022-11-24T00:25:29.000Z,8.100000381469727
2022-11-24T00:25:44.000Z,8.100000381469727
2022-11-24T00:25:59.000Z,8.100000381469727
2022-11-24T00:26:14.000Z,8.100000381469727
2022-11-24T00:26:29.000Z,8.0
2022-11-24T00:26:44.000Z,8.0
2022-11-24T00:26:59.000Z,8.0
2022-11-24T00:27:14.000Z,8.0
2022-11-24T00:27:29.000Z,8.0
2022-11-24T00:27:44.000Z,8.0
2022-11-24T00:27:58.000Z,8.0
2022-11-24T00:28:13.000Z,8.0
2022-11-24T00:28:28.000Z,7.900000095367432
2022-11-24T00:28:43.000Z,7.900000095367432
2022-11-24T00:28:58.000Z,8.0
2022-11-24T00:29:13.000Z,8.0
2022-11-24T00:29:28.000Z,8.0
2022-11-24T00:29:43.000Z,8.0
2022-11-24T00:29:58.000Z,8.0
2022-11-24T00:30:13.000Z,8.0
2022-11-24T00:30:28.000Z,8.0
2022-11-24T00:30:43.000Z,8.0
2022-11-24T00:30:58.000Z,8.0
2022-11-24T00:31:13.000Z,8.0
2022-11-24T00:31:28.000Z,8.0
2022-11-24T00:31:43.000Z,8.0
2022-11-24T00:31:58.000Z,8.0
2022-11-24T00:32:14.000Z,8.0
2022-11-24T00:32:29.000Z,8.0
2022-11-24T00:32:44.000Z,8.0
2022-11-24T00:32:59.000Z,8.100000381469727
2022-11-24T00:33:14.000Z,8.0
2022-11-24T00:33:29.000Z,8.0
2022-11-24T00:33:44.000Z,8.100000381469727
2022-11-24T00:33:59.000Z,8.100000381469727
2022-11-24T00:34:14.000Z,8.100000381469727
2022-11-24T00:34:29.000Z,8.100000381469727
2022-11-24T00:34:43.000Z,8.100000381469727
2022-11-24T00:34:58.000Z,8.100000381469727
2022-11-24T00:35:13.000Z,8.100000381469727
2022-11-24T00:35:28.000Z,8.100000381469727
2022-11-24T00:35:43.000Z,8.100000381469727
2022-11-24T00:35:58.000Z,8.100000381469727
2022-11-24T00:36:13.000Z,8.199999809265137
2022-11-24T00:36:28.000Z,8.199999809265137
2022-11-24T00:36:43.000Z,8.199999809265137
2022-11-24T00:36:58.000Z,8.199999809265137
2022-11-24T00:37:13.000Z,8.100000381469727
2022-11-24T00:37:28.000Z,8.100000381469727
2022-11-24T00:37:43.000Z,8.100000381469727
2022-11-24T00:37:58.000Z,8.100000381469727
2022-11-24T00:38:13.000Z,8.100000381469727
2022-11-24T00:38:28.000Z,8.100000381469727
2022-11-24T00:38:44.000Z,8.100000381469727
2022-11-24T00:38:59.000Z,8.100000381469727
2022-11-24T00:39:14.000Z,8.100000381469727
2022-11-24T00:39:29.000Z,8.199999809265137
2022-11-24T00:39:44.000Z,8.199999809265137
2022-11-24T00:39:59.000Z,8.199999809265137
2022-11-24T00:40:14.000Z,8.199999809265137
2022-11-24T00:40:29.000Z,8.199999809265137
2022-11-24T00:40:44.000Z,8.300000190734863
2022-11-24T00:40:59.000Z,8.300000190734863
2022-11-24T00:41:13.000Z,8.300000190734863
2022-11-24T00:41:28.000Z,8.300000190734863
2022-11-24T00:41:43.000Z,8.300000190734863
2022-11-24T00:41:58.000Z,8.300000190734863
2022-11-24T00:42:13.000Z,8.300000190734863
2022-11-24T00:42:28.000Z,8.300000190734863
2022-11-24T00:42:43.000Z,8.300000190734863
2022-11-24T00:42:58.000Z,8.300000190734863
2022-11-24T00:43:13.000Z,8.300000190734863
2022-11-24T00:43:28.000Z,8.300000190734863
2022-11-24T00:43:43.000Z,8.300000190734863
2022-11-24T00:43:58.000Z,8.300000190734863
2022-11-24T00:44:13.000Z,8.300000190734863
2022-11-24T00:44:28.000Z,8.300000190734863
2022-11-24T00:44:43.000Z,8.300000190734863
2022-11-24T00:44:58.000Z,8.300000190734863
2022-11-24T00:45:13.000Z,8.300000190734863
2022-11-24T00:45:29.000Z,8.300000190734863
2022-11-24T00:45:44.000Z,8.300000190734863
2022-11-24T00:45:59.000Z,8.300000190734863
2022-11-24T00:46:14.000Z,8.399999618530273
2022-11-24T00:46:29.000Z,8.300000190734863
2022-11-24T00:46:44.000Z,8.399999618530273
2022-11-24T00:46:59.000Z,8.399999618530273
2022-11-24T00:47:14.000Z,8.399999618530273
2022-11-24T00:47:29.000Z,8.399999618530273
2022-11-24T00:47:44.000Z,8.399999618530273
2022-11-24T00:47:58.000Z,8.399999618530273
2022-11-24T00:48:13.000Z,8.399999618530273
2022-11-24T00:48:28.000Z,8.399999618530273
2022-11-24T00:48:43.000Z,8.399999618530273
2022-11-24T00:48:58.000Z,8.399999618530273
2022-11-24T00:49:13.000Z,8.399999618530273
2022-11-24T00:49:28.000Z,8.399999618530273
2022-11-24T00:49:43.000Z,8.399999618530273
2022-11-24T00:49:58.000Z,8.399999618530273
2022-11-24T00:50:13.000Z,8.399999618530273
2022-11-24T00:50:28.000Z,8.399999618530273
2022-11-24T00:50:43.000Z,8.399999618530273
2022-11-24T00:50:58.000Z,8.399999618530273
2022-11-24T00:51:13.000Z,8.399999618530273
2022-11-24T00:51:28.000Z,8.399999618530273
2022-11-24T00:51:43.000Z,8.300000190734863
2022-11-24T00:51:59.000Z,8.300000190734863
2022-11-24T00:52:14.000Z,8.300000190734863
2022-11-24T00:52:29.000Z,8.300000190734863
2022-11-24T00:52:44.000Z,8.300000190734863
2022-11-24T00:52:59.000Z,8.300000190734863
2022-11-24T00:53:14.000Z,8.300000190734863
2022-11-24T00:53:29.000Z,8.300000190734863
2022-11-24T00:53:44.000Z,8.300000190734863
2022-11-24T00:53:59.000Z,8.300000190734863
2022-11-24T00:54:14.000Z,8.300000190734863
2022-11-24T00:54:28.000Z,8.300000190734863
2022-11-24T00:54:43.000Z,8.300000190734863
2022-11-24T00:54:58.000Z,8.300000190734863
2022-11-24T00:55:13.000Z,8.300000190734863
2022-11-24T00:55:28.000Z,8.399999618530273
2022-11-24T00:55:43.000Z,8.300000190734863
2022-11-24T00:55:58.000Z,8.300000190734863
2022-11-24T00:56:13.000Z,8.399999618530273
2022-11-24T00:56:28.000Z,8.399999618530273
2022-11-24T00:56:43.000Z,8.399999618530273
2022-11-24T00:56:58.000Z,8.399999618530273
2022-11-24T00:57:13.000Z,8.399999618530273
2022-11-24T00:57:28.000Z,8.399999618530273
2022-11-24T00:57:43.000Z,8.399999618530273
2022-11-24T00:57:58.000Z,8.399999618530273
2022-11-24T00:58:13.000Z,8.399999618530273
2022-11-24T00:58:29.000Z,8.399999618530273
2022-11-24T00:58:44.000Z,8.399999618530273
2022-11-24T00:58:59.000Z,8.399999618530273
2022-11-24T00:59:14.000Z,8.399999618530273
2022-11-24T00:59:29.000Z,8.399999618530273
2022-11-24T00:59:44.000Z,8.5
2022-11-24T00:59:59.000Z,8.5
2022-11-24T01:00:14.000Z,8.5
2022-11-24T01:00:29.000Z,8.5
2022-11-24T01:00:44.000Z,8.5
2022-11-24T01:00:59.000Z,8.5
2022-11-24T01:01:13.000Z,8.5
2022-11-24T01:01:28.000Z,8.5
2022-11-24T01:01:43.000Z,8.5
2022-11-24T01:01:58.000Z,8.399999618530273
2022-11-24T01:02:13.000Z,8.5
2022-11-24T01:02:28.000Z,8.399999618530273
2022-11-24T01:02:43.000Z,8.399999618530273
2022-11-24T01:02:58.000Z,8.5
2022-11-24T01:03:13.000Z,8.399999618530273
2022-11-24T01:03:28.000Z,8.399999618530273
2022-11-24T01:03:43.000Z,8.399999618530273
2022-11-24T01:03:58.000Z,8.5
2022-11-24T01:04:13.000Z,8.5
2022-11-24T01:04:28.000Z,8.399999618530273
2022-11-24T01:04:43.000Z,8.399999618530273
2022-11-24T01:04:58.000Z,8.5
2022-11-24T01:05:14.000Z,8.5
2022-11-24T01:05:29.000Z,8.5
2022-11-24T01:05:44.000Z,8.5
2022-11-24T01:05:59.000Z,8.399999618530273
2022-11-24T01:06:14.000Z,8.399999618530273
2022-11-24T01:06:29.000Z,8.399999618530273
2022-11-24T01:06:44.000Z,8.5
2022-11-24T01:06:59.000Z,8.5
2022-11-24T01:07:14.000Z,8.5
2022-11-24T01:07:29.000Z,8.5
2022-11-24T01:07:43.000Z,8.5
2022-11-24T01:07:58.000Z,8.399999618530273
2022-11-24T01:08:13.000Z,8.5
2022-11-24T01:08:28.000Z,8.5
2022-11-24T01:08:43.000Z,8.5
2022-11-24T01:08:58.000Z,8.5
2022-11-24T01:09:13.000Z,8.5
2022-11-24T01:09:28.000Z,8.5
2022-11-24T01:09:43.000Z,8.399999618530273
2022-11-24T01:09:58.000Z,8.399999618530273
2022-11-24T01:10:13.000Z,8.399999618530273
2022-11-24T01:10:28.000Z,8.399999618530273
2022-11-24T01:10:43.000Z,8.399999618530273
2022-11-24T01:10:58.000Z,8.399999618530273
2022-11-24T01:11:13.000Z,8.399999618530273
2022-11-24T01:11:28.000Z,8.399999618530273
2022-11-24T01:11:44.000Z,8.399999618530273
2022-11-24T01:11:59.000Z,8.300000190734863
2022-11-24T01:12:14.000Z,8.300000190734863
2022-11-24T01:12:29.000Z,8.300000190734863
2022-11-24T01:12:44.000Z,8.399999618530273
2022-11-24T01:12:59.000Z,8.300000190734863
2022-11-24T01:13:14.000Z,8.300000190734863
2022-11-24T01:13:29.000Z,8.300000190734863
2022-11-24T01:13:44.000Z,8.300000190734863
2022-11-24T01:13:59.000Z,8.300000190734863
2022-11-24T01:14:13.000Z,8.300000190734863
2022-11-24T01:14:28.000Z,8.300000190734863
2022-11-24T01:14:43.000Z,8.300000190734863
2022-11-24T01:14:58.000Z,8.300000190734863
2022-11-24T01:15:13.000Z,8.300000190734863
2022-11-24T01:15:28.000Z,8.300000190734863
2022-11-24T01:15:43.000Z,8.300000190734863
2022-11-24T01:15:58.000Z,8.300000190734863
2022-11-24T01:16:13.000Z,8.300000190734863
2022-11-24T01:16:28.000Z,8.300000190734863
2022-11-24T01:16:43.000Z,8.300000190734863
2022-11-24T01:16:58.000Z,8.300000190734863
2022-11-24T01:17:13.000Z,8.300000190734863
2022-11-24T01:17:28.000Z,8.300000190734863
2022-11-24T01:17:43.000Z,8.300000190734863
2022-11-24T01:17:58.000Z,8.300000190734863
2022-11-24T01:18:14.000Z,8.300000190734863
2022-11-24T01:18:29.000Z,8.300000190734863
2022-11-24T01:18:44.000Z,8.300000190734863
2022-11-24T01:18:59.000Z,8.300000190734863
2022-11-24T01:19:14.000Z,8.300000190734863
2022-11-24T01:19:29.000Z,8.300000190734863
2022-11-24T01:19:44.000Z,8.300000190734863
2022-11-24T01:19:59.000Z,8.300000190734863
2022-11-24T01:20:14.000Z,8.300000190734863
2022-11-24T01:20:29.000Z,8.300000190734863
2022-11-24T01:20:44.000Z,8.300000190734863
2022-11-24T01:20:58.000Z,8.300000190734863
2022-11-24T01:21:13.000Z,8.300000190734863
2022-11-24T01:21:28.000Z,8.300000190734863
2022-11-24T01:21:43.000Z,8.300000190734863
2022-11-24T01:21:58.000Z,8.300000190734863
2022-11-24T01:22:13.000Z,8.300000190734863
2022-11-24T01:22:28.000Z,8.300000190734863
2022-11-24T01:22:43.000Z,8.300000190734863
2022-11-24T01:22:58.000Z,8.300000190734863
2022-11-24T01:23:13.000Z,8.300000190734863
2022-11-24T01:23:28.000Z,8.300000190734863
2022-11-24T01:23:43.000Z,8.300000190734863
2022-11-24T01:23:58.000Z,8.199999809265137
2022-11-24T01:24:13.000Z,8.300000190734863
2022-11-24T01:24:28.000Z,8.300000190734863
2022-11-24T01:24:43.000Z,8.300000190734863
2022-11-24T01:24:59.000Z,8.300000190734863
2022-11-24T01:25:14.000Z,8.300000190734863
2022-11-24T01:25:29.000Z,8.300000190734863
2022-11-24T01:25:44.000Z,8.300000190734863
2022-11-24T01:25:59.000Z,8.300000190734863
2022-11-24T01:26:14.000Z,8.300000190734863
2022-11-24T01:26:29.000Z,8.300000190734863
2022-11-24T01:26:44.000Z,8.300000190734863
2022-11-24T01:26:59.000Z,8.300000190734863
2022-11-24T01:27:14.000Z,8.300000190734863
2022-11-24T01:27:28.000Z,8.300000190734863
2022-11-24T01:27:43.000Z,8.300000190734863
2022-11-24T01:27:58.000Z,8.300000190734863
2022-11-24T01:28:13.000Z,8.300000190734863
2022-11-24T01:28:28.000Z,8.300000190734863
2022-11-24T01:28:43.000Z,8.300000190734863
2022-11-24T01:28:58.000Z,8.300000190734863
2022-11-24T01:29:13.000Z,8.300000190734863
2022-11-24T01:29:28.000Z,8.300000190734863
2022-11-24T01:29:43.000Z,8.300000190734863
2022-11-24T01:29:58.000Z,8.300000190734863
2022-11-24T01:30:13.000Z,8.300000190734863
2022-11-24T01:30:28.000Z,8.300000190734863
2022-11-24T01:30:43.000Z,8.300000190734863
2022-11-24T01:30:58.000Z,8.300000190734863
2022-11-24T01:31:13.000Z,8.300000190734863
2022-11-24T01:31:29.000Z,8.300000190734863
2022-11-24T01:31:44.000Z,8.300000190734863
2022-11-24T01:31:59.000Z,8.300000190734863
2022-11-24T01:32:14.000Z,8.300000190734863
2022-11-24T01:32:29.000Z,8.300000190734863
2022-11-24T01:32:44.000Z,8.300000190734863
2022-11-24T01:32:59.000Z,8.300000190734863
2022-11-24T01:33:14.000Z,8.300000190734863
2022-11-24T01:33:29.000Z,8.300000190734863
2022-11-24T01:33:44.000Z,8.300000190734863
2022-11-24T01:33:59.000Z,8.300000190734863
2022-11-24T01:34:13.000Z,8.300000190734863
2022-11-24T01:34:28.000Z,8.300000190734863
2022-11-24T01:34:43.000Z,8.300000190734863
2022-11-24T01:34:58.000Z,8.300000190734863
2022-11-24T01:35:13.000Z,8.300000190734863
2022-11-24T01:35:28.000Z,8.300000190734863
2022-11-24T01:35:43.000Z,8.300000190734863
2022-11-24T01:35:58.000Z,8.300000190734863
2022-11-24T01:36:13.000Z,8.300000190734863
2022-11-24T01:36:28.000Z,8.300000190734863
2022-11-24T01:36:43.000Z,8.300000190734863
2022-11-24T01:36:58.000Z,8.300000190734863
2022-11-24T01:37:13.000Z,8.300000190734863
2022-11-24T01:37:28.000Z,8.300000190734863
2022-11-24T01:37:43.000Z,8.300000190734863
2022-11-24T01:37:58.000Z,8.300000190734863
2022-11-24T01:38:14.000Z,8.199999809265137
2022-11-24T01:38:29.000Z,8.199999809265137
2022-11-24T01:38:44.000Z,8.199999809265137
2022-11-24T01:38:59.000Z,8.199999809265137
2022-11-24T01:39:14.000Z,8.199999809265137
2022-11-24T01:39:29.000Z,8.199999809265137
2022-11-24T01:39:44.000Z,8.199999809265137
2022-11-24T01:39:59.000Z,8.199999809265137
2022-11-24T01:40:14.000Z,8.199999809265137
2022-11-24T01:40:29.000Z,8.199999809265137
2022-11-24T01:40:43.000Z,8.199999809265137
2022-11-24T01:40:58.000Z,8.199999809265137
2022-11-24T01:41:13.000Z,8.100000381469727
2022-11-24T01:41:28.000Z,8.199999809265137
2022-11-24T01:41:43.000Z,8.100000381469727
2022-11-24T01:41:58.000Z,8.100000381469727
2022-11-24T01:42:13.000Z,8.100000381469727
2022-11-24T01:42:28.000Z,8.100000381469727
2022-11-24T01:42:43.000Z,8.100000381469727
2022-11-24T01:42:58.000Z,8.100000381469727
2022-11-24T01:43:13.000Z,8.100000381469727
2022-11-24T01:43:28.000Z,8.100000381469727
2022-11-24T01:43:43.000Z,8.100000381469727
2022-11-24T01:43:58.000Z,8.100000381469727
2022-11-24T01:44:13.000Z,8.100000381469727
2022-11-24T01:44:28.000Z,8.100000381469727
2022-11-24T01:44:43.000Z,8.100000381469727
2022-11-24T01:44:59.000Z,8.100000381469727
2022-11-24T01:45:14.000Z,8.0
2022-11-24T01:45:29.000Z,8.100000381469727
2022-11-24T01:45:44.000Z,8.100000381469727
2022-11-24T01:45:59.000Z,8.100000381469727
2022-11-24T01:46:13.000Z,8.100000381469727
2022-11-24T01:46:29.000Z,8.100000381469727
2022-11-24T01:46:44.000Z,8.100000381469727
2022-11-24T01:46:59.000Z,8.100000381469727
2022-11-24T01:47:14.000Z,8.100000381469727
2022-11-24T01:47:28.000Z,8.100000381469727
2022-11-24T01:47:43.000Z,8.100000381469727
2022-11-24T01:47:58.000Z,8.100000381469727
2022-11-24T01:48:13.000Z,8.0
2022-11-24T01:48:28.000Z,8.100000381469727
2022-11-24T01:48:43.000Z,8.0
2022-11-24T01:48:58.000Z,8.0
2022-11-24T01:49:13.000Z,8.0
2022-11-24T01:49:28.000Z,8.0
2022-11-24T01:49:43.000Z,8.0
2022-11-24T01:49:58.000Z,8.0
2022-11-24T01:50:13.000Z,8.0
2022-11-24T01:50:28.000Z,8.0
2022-11-24T01:50:43.000Z,8.100000381469727
2022-11-24T01:50:58.000Z,8.100000381469727
2022-11-24T01:51:13.000Z,8.100000381469727
2022-11-24T01:51:29.000Z,8.100000381469727
2022-11-24T01:51:44.000Z,8.100000381469727
2022-11-24T01:51:59.000Z,8.0
2022-11-24T01:52:14.000Z,8.100000381469727
2022-11-24T01:52:29.000Z,8.100000381469727
2022-11-24T01:52:44.000Z,8.0
2022-11-24T01:52:59.000Z,8.100000381469727
2022-11-24T01:53:14.000Z,8.100000381469727
2022-11-24T01:53:29.000Z,8.100000381469727
2022-11-24T01:53:44.000Z,8.100000381469727
2022-11-24T01:53:59.000Z,8.100000381469727
2022-11-24T01:54:13.000Z,8.100000381469727
2022-11-24T01:54:28.000Z,8.100000381469727
2022-11-24T01:54:43.000Z,8.100000381469727
2022-11-24T01:54:58.000Z,8.100000381469727
2022-11-24T01:55:13.000Z,8.100000381469727
2022-11-24T01:55:28.000Z,8.199999809265137
2022-11-24T01:55:43.000Z,8.100000381469727
2022-11-24T01:55:58.000Z,8.100000381469727
2022-11-24T01:56:13.000Z,8.100000381469727
2022-11-24T01:56:28.000Z,8.100000381469727
2022-11-24T01:56:43.000Z,8.100000381469727
2022-11-24T01:56:58.000Z,8.100000381469727
2022-11-24T01:57:13.000Z,8.100000381469727
2022-11-24T01:57:28.000Z,8.100000381469727
2022-11-24T01:57:43.000Z,8.100000381469727
2022-11-24T01:57:58.000Z,8.100000381469727
2022-11-24T01:58:14.000Z,8.199999809265137
2022-11-24T01:58:29.000Z,8.199999809265137
2022-11-24T01:58:44.000Z,8.199999809265137
2022-11-24T01:58:59.000Z,8.199999809265137
2022-11-24T01:59:14.000Z,8.199999809265137
2022-11-24T01:59:29.000Z,8.199999809265137
2022-11-24T01:59:44.000Z,8.199999809265137
2022-11-24T01:59:59.000Z,8.199999809265137
2022-11-24T02:00:14.000Z,8.100000381469727
2022-11-24T02:00:29.000Z,8.100000381469727
2022-11-24T02:00:43.000Z,8.199999809265137
2022-11-24T02:00:58.000Z,8.100000381469727
2022-11-24T02:01:13.000Z,8.199999809265137
2022-11-24T02:01:28.000Z,8.100000381469727
2022-11-24T02:01:43.000Z,8.199999809265137
2022-11-24T02:01:58.000Z,8.199999809265137
2022-11-24T02:02:13.000Z,8.199999809265137
2022-11-24T02:02:28.000Z,8.199999809265137
2022-11-24T02:02:43.000Z,8.199999809265137
2022-11-24T02:02:58.000Z,8.199999809265137
2022-11-24T02:03:13.000Z,8.199999809265137
2022-11-24T02:03:28.000Z,8.199999809265137
2022-11-24T02:03:43.000Z,8.199999809265137
2022-11-24T02:03:58.000Z,8.199999809265137
2022-11-24T02:04:13.000Z,8.199999809265137
2022-11-24T02:04:28.000Z,8.199999809265137
2022-11-24T02:04:44.000Z,8.199999809265137
2022-11-24T02:04:59.000Z,8.199999809265137
2022-11-24T02:05:14.000Z,8.199999809265137
2022-11-24T02:05:29.000Z,8.199999809265137
2022-11-24T02:05:44.000Z,8.199999809265137
2022-11-24T02:05:59.000Z,8.199999809265137
2022-11-24T02:06:14.000Z,8.199999809265137
2022-11-24T02:06:29.000Z,8.199999809265137
2022-11-24T02:06:44.000Z,8.100000381469727
2022-11-24T02:06:59.000Z,8.100000381469727
2022-11-24T02:07:14.000Z,8.100000381469727
2022-11-24T02:07:28.000Z,8.100000381469727
2022-11-24T02:07:43.000Z,8.100000381469727
2022-11-24T02:07:58.000Z,8.100000381469727
2022-11-24T02:08:13.000Z,8.100000381469727
2022-11-24T02:08:28.000Z,8.100000381469727
2022-11-24T02:08:43.000Z,8.100000381469727
2022-11-24T02:08:58.000Z,8.100000381469727
2022-11-24T02:09:13.000Z,8.100000381469727
2022-11-24T02:09:28.000Z,8.100000381469727
2022-11-24T02:09:43.000Z,8.100000381469727
2022-11-24T02:09:58.000Z,8.100000381469727
2022-11-24T02:10:13.000Z,8.100000381469727
2022-11-24T02:10:28.000Z,8.100000381469727
2022-11-24T02:10:43.000Z,8.0
2022-11-24T02:10:58.000Z,8.0
2022-11-24T02:11:13.000Z,8.100000381469727
2022-11-24T02:11:29.000Z,8.0
2022-11-24T02:11:44.000Z,8.0
2022-11-24T02:11:59.000Z,8.0
2022-11-24T02:12:14.000Z,8.100000381469727
2022-11-24T02:12:29.000Z,8.100000381469727
2022-11-24T02:12:44.000Z,8.100000381469727
2022-11-24T02:12:59.000Z,8.0
2022-11-24T02:13:14.000Z,8.0
2022-11-24T02:13:29.000Z,8.0
2022-11-24T02:13:44.000Z,8.0
2022-11-24T02:13:59.000Z,8.0
2022-11-24T02:14:13.000Z,8.0
2022-11-24T02:14:28.000Z,8.0
2022-11-24T02:14:43.000Z,8.0
2022-11-24T02:14:58.000Z,8.0
2022-11-24T02:15:13.000Z,8.0
2022-11-24T02:15:28.000Z,8.0
2022-11-24T02:15:43.000Z,8.0
2022-11-24T02:15:58.000Z,8.0
2022-11-24T02:16:13.000Z,8.0
2022-11-24T02:16:28.000Z,8.0
2022-11-24T02:16:43.000Z,8.0
2022-11-24T02:16:58.000Z,8.0
2022-11-24T02:17:13.000Z,8.0
2022-11-24T02:17:28.000Z,8.0
2022-11-24T02:17:43.000Z,8.0
2022-11-24T02:17:58.000Z,8.0
2022-11-24T02:18:14.000Z,8.0
2022-11-24T02:18:29.000Z,8.0
2022-11-24T02:18:44.000Z,8.0
2022-11-24T02:18:59.000Z,8.0
2022-11-24T02:19:14.000Z,8.0
2022-11-24T02:19:29.000Z,8.0
2022-11-24T02:19:44.000Z,7.900000095367432
2022-11-24T02:19:59.000Z,7.900000095367432
2022-11-24T02:20:14.000Z,8.0
2022-11-24T02:20:29.000Z,8.0
2022-11-24T02:20:43.000Z,8.0
2022-11-24T02:20:58.000Z,8.0
2022-11-24T02:21:13.000Z,8.0
2022-11-24T02:21:28.000Z,8.0
2022-11-24T02:21:43.000Z,8.0
2022-11-24T02:21:58.000Z,8.0
2022-11-24T02:22:13.000Z,8.0
2022-11-24T02:22:28.000Z,8.0
2022-11-24T02:22:43.000Z,8.0
2022-11-24T02:22:58.000Z,8.0
2022-11-24T02:23:13.000Z,8.0
2022-11-24T02:23:28.000Z,8.0
2022-11-24T02:23:43.000Z,8.0
2022-11-24T02:23:58.000Z,8.0
2022-11-24T02:24:13.000Z,8.0
2022-11-24T02:24:28.000Z,8.0
2022-11-24T02:24:44.000Z,8.0
2022-11-24T02:24:59.000Z,8.0
2022-11-24T02:25:14.000Z,8.0
2022-11-24T02:25:29.000Z,8.0
2022-11-24T02:25:44.000Z,8.0
2022-11-24T02:25:59.000Z,8.0
2022-11-24T02:26:14.000Z,8.0
2022-11-24T02:26:29.000Z,8.0
2022-11-24T02:26:44.000Z,8.0
2022-11-24T02:26:59.000Z,8.0
2022-11-24T02:27:14.000Z,8.0
2022-11-24T02:27:28.000Z,8.0
2022-11-24T02:27:43.000Z,8.0
2022-11-24T02:27:58.000Z,8.0
2022-11-24T02:28:13.000Z,8.0
2022-11-24T02:28:28.000Z,8.0
2022-11-24T02:28:43.000Z,8.0
2022-11-24T02:28:58.000Z,8.0
2022-11-24T02:29:13.000Z,8.0
2022-11-24T02:29:28.000Z,8.0
2022-11-24T02:29:43.000Z,8.0
2022-11-24T02:29:58.000Z,7.900000095367432
2022-11-24T02:30:13.000Z,7.900000095367432
2022-11-24T02:30:28.000Z,7.900000095367432
2022-11-24T02:30:43.000Z,7.900000095367432
2022-11-24T02:30:58.000Z,7.900000095367432
2022-11-24T02:31:13.000Z,7.900000095367432
2022-11-24T02:31:29.000Z,7.900000095367432
2022-11-24T02:31:44.000Z,7.900000095367432
2022-11-24T02:31:59.000Z,7.900000095367432